Time;durP1;ratioP1;P1;durP2;ratioP2;P2;SDS_P1;SDS_P2;PMS_P1;PMS_P2;Temp;Humidity;BMP_temperature;BMP_pressure;BME280_temperature;BME280_humidity;BME280_pressure;Samples;Min_cycle;Max_cycle;Signal;HPM_P1;HPM_P2
2021/12/25 00:01:33;;;;;;;19.35;12.27;;;;;;;;;;5133566;27;20434;-72
2021/12/25 00:04:00;;;;;;;21.00;11.55;;;;;;;;;;5135080;27;20101;-71
2021/12/25 00:06:26;;;;;;;22.40;12.90;;;;;;;;;;5134822;27;20494;-71
2021/12/25 00:08:53;;;;;;;16.30;11.48;;;;;;;;;;5132089;27;20144;-71
2021/12/25 00:11:19;;;;;;;15.98;11.35;;;;;;;;;;5133528;27;20052;-72
2021/12/25 00:13:45;;;;;;;16.83;11.45;;;;;;;;;;5123853;27;20524;-71
2021/12/25 00:16:12;;;;;;;16.67;11.48;;;;;;;;;;5135486;27;20051;-72
2021/12/25 00:18:41;;;;;;;15.55;11.07;;;;;;;;;;5134952;27;20055;-71
2021/12/25 00:21:08;;;;;;;16.05;10.93;;;;;;;;;;5118109;27;20135;-71
2021/12/25 00:23:34;;;;;;;15.88;11.25;;;;;;;;;;5117531;27;20085;-71
2021/12/25 00:26:10;;;;;;;16.75;11.18;;;;;;;;;;5133354;27;20079;-71
2021/12/25 00:36:10;;;;;;;17.95;10.43;;;;;;;;;;5130861;27;20126;-71
2021/12/25 00:38:37;;;;;;;13.93;9.90;;;;;;;;;;5132393;27;20055;-72
2021/12/25 00:41:04;;;;;;;16.13;10.13;;;;;;;;;;5126206;27;20139;-72
2021/12/25 00:43:31;;;;;;;13.35;10.40;;;;;;;;;;5135157;27;20051;-71
2021/12/25 00:45:57;;;;;;;13.68;10.23;;;;;;;;;;5135122;27;20056;-71
2021/12/25 00:48:23;;;;;;;15.80;9.45;;;;;;;;;;5133686;27;20116;-70
2021/12/25 00:50:49;;;;;;;13.45;10.65;;;;;;;;;;5134032;27;20554;-72
2021/12/25 00:53:16;;;;;;;12.25;9.88;;;;;;;;;;5133022;27;20048;-73
2021/12/25 00:55:42;;;;;;;13.65;10.52;;;;;;;;;;5126970;27;20058;-71
2021/12/25 00:58:08;;;;;;;13.48;10.75;;;;;;;;;;5121264;27;20055;-71
2021/12/25 01:00:35;;;;;;;12.68;10.25;;;;;;;;;;5135033;27;20056;-71
2021/12/25 01:03:01;;;;;;;11.90;9.52;;;;;;;;;;5134929;27;20048;-70
2021/12/25 01:05:28;;;;;;;11.63;9.13;;;;;;;;;;5131223;27;20078;-71
2021/12/25 01:07:54;;;;;;;12.73;9.50;;;;;;;;;;5129595;27;20066;-72
2021/12/25 01:10:21;;;;;;;11.85;9.55;;;;;;;;;;5126595;27;20051;-70
2021/12/25 01:15:49;;;;;;;13.25;10.10;;;;;;;;;;5123306;27;20052;-72
2021/12/25 01:24:16;;;;;;;11.82;9.23;;;;;;;;;;5126793;27;20047;-71
2021/12/25 01:29:21;;;;;;;11.82;9.30;;;;;;;;;;5130383;27;20051;-71
2021/12/25 01:37:03;;;;;;;10.45;8.32;;;;;;;;;;5117245;27;20060;-71
2021/12/25 01:39:58;;;;;;;11.23;8.63;;;;;;;;;;5132022;27;20535;-71
2021/12/25 01:50:10;;;;;;;12.35;9.55;;;;;;;;;;5125579;27;46347;-72
2021/12/25 01:52:36;;;;;;;15.07;10.13;;;;;;;;;;5133889;27;20058;-73
2021/12/25 01:55:05;;;;;;;13.77;9.93;;;;;;;;;;5129820;27;20056;-71
2021/12/25 01:57:31;;;;;;;15.85;10.98;;;;;;;;;;5119133;27;20047;-72
2021/12/25 01:59:59;;;;;;;14.13;10.27;;;;;;;;;;5130045;27;20135;-71
2021/12/25 02:02:26;;;;;;;14.25;10.20;;;;;;;;;;5134011;27;20078;-71
2021/12/25 02:04:52;;;;;;;14.30;10.68;;;;;;;;;;5132813;27;20100;-72
2021/12/25 02:07:19;;;;;;;15.23;11.25;;;;;;;;;;5133894;27;20082;-72
2021/12/25 02:09:46;;;;;;;15.60;10.90;;;;;;;;;;5133460;27;20138;-72
2021/12/25 02:12:14;;;;;;;15.68;10.13;;;;;;;;;;5134203;27;20043;-71
2021/12/25 02:14:43;;;;;;;17.63;11.80;;;;;;;;;;5126491;27;20063;-71
2021/12/25 02:17:30;;;;;;;17.98;11.52;;;;;;;;;;5128746;27;20060;-71
2021/12/25 02:20:14;;;;;;;15.48;11.65;;;;;;;;;;5130315;27;20055;-71
2021/12/25 02:22:40;;;;;;;16.30;11.18;;;;;;;;;;5132878;27;20261;-71
2021/12/25 02:25:07;;;;;;;19.02;12.52;;;;;;;;;;5121273;27;20054;-71
2021/12/25 02:27:33;;;;;;;17.25;12.15;;;;;;;;;;5133369;27;20507;-71
2021/12/25 02:29:59;;;;;;;18.38;12.23;;;;;;;;;;5133801;27;20077;-71
2021/12/25 02:32:26;;;;;;;17.83;12.80;;;;;;;;;;5133445;27;20050;-73
2021/12/25 02:34:52;;;;;;;18.30;12.25;;;;;;;;;;5121517;27;20048;-71
2021/12/25 02:37:18;;;;;;;19.10;12.23;;;;;;;;;;5131686;27;20077;-71
2021/12/25 02:39:46;;;;;;;19.45;12.07;;;;;;;;;;5118879;27;20051;-71
2021/12/25 02:42:12;;;;;;;20.88;14.00;;;;;;;;;;5131988;27;20055;-71
2021/12/25 02:44:38;;;;;;;19.92;13.45;;;;;;;;;;5128220;27;20048;-71
2021/12/25 02:47:10;;;;;;;19.38;13.65;;;;;;;;;;5133376;27;20119;-72
2021/12/25 02:49:36;;;;;;;20.15;13.25;;;;;;;;;;5133377;27;20079;-71
2021/12/25 02:52:05;;;;;;;20.17;12.73;;;;;;;;;;5131110;27;20135;-71
2021/12/25 02:54:31;;;;;;;20.75;13.95;;;;;;;;;;5128876;27;20059;-71
2021/12/25 02:56:58;;;;;;;21.85;12.73;;;;;;;;;;5126819;27;20109;-71
2021/12/25 02:59:24;;;;;;;21.98;12.40;;;;;;;;;;5129498;27;20048;-71
2021/12/25 03:02:03;;;;;;;20.20;12.90;;;;;;;;;;5134079;27;20128;-71
2021/12/25 03:04:29;;;;;;;22.05;13.27;;;;;;;;;;5129840;27;20814;-71
2021/12/25 03:06:56;;;;;;;26.23;14.25;;;;;;;;;;5128774;27;20055;-71
2021/12/25 03:09:22;;;;;;;20.30;13.57;;;;;;;;;;5132480;27;20063;-71
2021/12/25 03:11:48;;;;;;;24.52;14.63;;;;;;;;;;5134536;27;20058;-71
2021/12/25 03:14:32;;;;;;;23.50;13.43;;;;;;;;;;5136300;27;20052;-72
2021/12/25 03:16:58;;;;;;;23.20;14.07;;;;;;;;;;5136080;27;20048;-71
2021/12/25 03:19:31;;;;;;;20.88;13.90;;;;;;;;;;5127400;27;20051;-72
2021/12/25 03:21:58;;;;;;;26.27;15.05;;;;;;;;;;5124106;27;20561;-72
2021/12/25 03:24:25;;;;;;;24.63;15.32;;;;;;;;;;5124792;27;20143;-71
2021/12/25 03:26:54;;;;;;;23.08;15.50;;;;;;;;;;5126709;27;20056;-71
2021/12/25 03:29:21;;;;;;;23.70;15.18;;;;;;;;;;5133844;27;20143;-72
2021/12/25 03:31:49;;;;;;;23.67;14.35;;;;;;;;;;5134919;27;20044;-71
2021/12/25 03:34:15;;;;;;;24.48;14.15;;;;;;;;;;5127799;27;20058;-72
2021/12/25 03:36:41;;;;;;;21.67;14.40;;;;;;;;;;5118361;27;20487;-72
2021/12/25 03:39:08;;;;;;;20.10;12.98;;;;;;;;;;5121427;27;20048;-72
2021/12/25 03:41:34;;;;;;;22.63;13.50;;;;;;;;;;5135648;27;20057;-72
2021/12/25 03:44:01;;;;;;;24.05;14.45;;;;;;;;;;5136141;27;20054;-72
2021/12/25 03:46:31;;;;;;;22.58;14.05;;;;;;;;;;5132705;27;20052;-72
2021/12/25 03:59:40;;;;;;;18.15;11.93;;;;;;;;;;5134492;27;20054;-71
2021/12/25 04:02:16;;;;;;;19.17;12.15;;;;;;;;;;5135465;27;20052;-71
2021/12/25 04:04:46;;;;;;;16.92;11.10;;;;;;;;;;5132655;27;20062;-71
2021/12/25 04:07:43;;;;;;;21.65;13.32;;;;;;;;;;5136315;27;20051;-71
2021/12/25 04:10:06;;;;;;;17.13;11.63;;;;;;;;;;5128879;27;20062;-71
2021/12/25 04:12:32;;;;;;;17.75;11.57;;;;;;;;;;5135751;27;20178;-70
2021/12/25 04:14:59;;;;;;;18.20;11.05;;;;;;;;;;5135422;27;20521;-70
2021/12/25 04:17:25;;;;;;;19.50;11.13;;;;;;;;;;5133782;27;20147;-71
2021/12/25 04:19:51;;;;;;;18.13;11.00;;;;;;;;;;5132531;27;20047;-72
2021/12/25 04:22:26;;;;;;;16.48;10.48;;;;;;;;;;5115840;27;20082;-71
2021/12/25 04:24:52;;;;;;;21.92;11.35;;;;;;;;;;5128269;27;20077;-72
2021/12/25 04:27:20;;;;;;;19.20;11.40;;;;;;;;;;5133780;27;20056;-71
2021/12/25 04:30:00;;;;;;;13.50;8.48;;;;;;;;;;5128698;27;20055;-72
2021/12/25 04:32:53;;;;;;;18.27;9.32;;;;;;;;;;5125555;27;20059;-71
2021/12/25 05:05:03;;;;;;;8.68;5.68;;;;;;;;;;5130143;27;20083;-71
2021/12/25 05:07:29;;;;;;;6.35;4.28;;;;;;;;;;5129944;27;20154;-71
2021/12/25 05:09:57;;;;;;;5.78;3.70;;;;;;;;;;5130321;27;20060;-72
2021/12/25 05:12:23;;;;;;;7.82;4.13;;;;;;;;;;5127984;27;20138;-71
2021/12/25 05:14:49;;;;;;;5.25;3.83;;;;;;;;;;5116413;27;20423;-71
2021/12/25 05:17:16;;;;;;;5.40;4.00;;;;;;;;;;5130013;27;20527;-71
2021/12/25 05:19:42;;;;;;;6.95;3.90;;;;;;;;;;5121520;27;20052;-72
2021/12/25 05:22:10;;;;;;;4.65;3.40;;;;;;;;;;5125939;27;20522;-72
2021/12/25 05:24:36;;;;;;;7.78;3.15;;;;;;;;;;5118612;27;20131;-73
2021/12/25 05:27:03;;;;;;;3.13;2.45;;;;;;;;;;5132074;27;20051;-71
2021/12/25 05:29:33;;;;;;;6.97;2.72;;;;;;;;;;5132637;27;20495;-72
2021/12/25 05:31:59;;;;;;;9.27;2.22;;;;;;;;;;5134311;27;20146;-71
2021/12/25 05:34:25;;;;;;;3.60;1.85;;;;;;;;;;5126721;27;20051;-70
2021/12/25 05:36:52;;;;;;;3.50;1.95;;;;;;;;;;5133255;27;20048;-73
2021/12/25 05:39:20;;;;;;;2.70;1.67;;;;;;;;;;5125214;27;20056;-70
2021/12/25 05:41:46;;;;;;;2.75;1.65;;;;;;;;;;5134717;27;20067;-70
2021/12/25 05:44:12;;;;;;;3.63;1.65;;;;;;;;;;5134197;27;20059;-71
2021/12/25 05:46:39;;;;;;;3.15;1.48;;;;;;;;;;5132560;27;20051;-70
2021/12/25 05:49:05;;;;;;;3.25;1.42;;;;;;;;;;5127107;27;20494;-71
2021/12/25 05:51:32;;;;;;;3.97;1.70;;;;;;;;;;5131625;27;20058;-70
2021/12/25 05:53:59;;;;;;;3.08;1.45;;;;;;;;;;5119663;27;20078;-70
2021/12/25 05:56:25;;;;;;;4.40;1.40;;;;;;;;;;5123336;27;20129;-70
2021/12/25 05:58:51;;;;;;;3.03;1.60;;;;;;;;;;5132439;27;20062;-69
2021/12/25 06:01:18;;;;;;;2.33;1.60;;;;;;;;;;5132579;27;20081;-70
2021/12/25 06:03:44;;;;;;;2.65;1.30;;;;;;;;;;5132098;27;20074;-72
2021/12/25 06:06:10;;;;;;;2.90;1.48;;;;;;;;;;5132076;27;20052;-72
2021/12/25 06:08:37;;;;;;;2.17;1.52;;;;;;;;;;5131493;27;20063;-71
2021/12/25 06:11:03;;;;;;;2.55;1.60;;;;;;;;;;5132271;27;20060;-70
2021/12/25 06:13:38;;;;;;;2.00;1.40;;;;;;;;;;5132281;27;20056;-71
2021/12/25 06:16:04;;;;;;;2.42;1.88;;;;;;;;;;5132903;27;20537;-70
2021/12/25 06:18:31;;;;;;;2.10;1.63;;;;;;;;;;5132664;27;20048;-71
2021/12/25 06:20:57;;;;;;;3.85;1.48;;;;;;;;;;5132163;27;20051;-70
2021/12/25 06:23:23;;;;;;;2.17;1.60;;;;;;;;;;5132220;27;20062;-71
2021/12/25 06:25:49;;;;;;;3.10;1.55;;;;;;;;;;5132747;27;20058;-71
2021/12/25 06:28:16;;;;;;;1.63;1.52;;;;;;;;;;5132572;27;20059;-70
2021/12/25 06:30:44;;;;;;;5.90;1.60;;;;;;;;;;5131138;27;20060;-70
2021/12/25 06:33:10;;;;;;;3.65;1.60;;;;;;;;;;5133340;27;20052;-70
2021/12/25 06:35:37;;;;;;;2.20;1.23;;;;;;;;;;5134023;27;20055;-70
2021/12/25 06:38:03;;;;;;;1.95;1.85;;;;;;;;;;5130182;27;20078;-71
2021/12/25 06:40:29;;;;;;;2.78;1.50;;;;;;;;;;5135421;27;20081;-71
2021/12/25 06:42:55;;;;;;;2.40;1.73;;;;;;;;;;5130980;27;20054;-71
2021/12/25 06:45:22;;;;;;;1.77;1.30;;;;;;;;;;5104296;27;20048;-69
2021/12/25 06:47:54;;;;;;;2.63;1.30;;;;;;;;;;5131314;27;20989;-72
2021/12/25 06:50:21;;;;;;;2.17;1.42;;;;;;;;;;5135925;27;20070;-70
2021/12/25 06:52:48;;;;;;;1.60;1.25;;;;;;;;;;5135858;27;20052;-73
2021/12/25 06:55:14;;;;;;;3.97;1.63;;;;;;;;;;5135519;27;20052;-71
2021/12/25 06:57:53;;;;;;;2.28;1.30;;;;;;;;;;5135468;27;20055;-71
2021/12/25 07:00:20;;;;;;;1.60;1.20;;;;;;;;;;5137181;27;20052;-71
2021/12/25 07:02:47;;;;;;;3.60;1.38;;;;;;;;;;5137085;27;20044;-71
2021/12/25 07:05:13;;;;;;;5.32;1.58;;;;;;;;;;5134869;27;20445;-73
2021/12/25 07:07:39;;;;;;;2.45;1.20;;;;;;;;;;5133674;27;20047;-73
2021/12/25 07:10:06;;;;;;;2.15;1.50;;;;;;;;;;5132042;27;20058;-72
2021/12/25 07:12:37;;;;;;;3.47;1.40;;;;;;;;;;5135498;27;20055;-72
2021/12/25 07:15:04;;;;;;;3.60;1.73;;;;;;;;;;5136048;27;20052;-72
2021/12/25 07:17:30;;;;;;;3.78;1.25;;;;;;;;;;5129777;27;22049;-71
2021/12/25 07:19:57;;;;;;;1.80;1.33;;;;;;;;;;5127399;27;20051;-73
2021/12/25 07:22:23;;;;;;;2.80;1.48;;;;;;;;;;5124922;27;20527;-70
2021/12/25 07:24:49;;;;;;;3.75;1.55;;;;;;;;;;5128303;27;20058;-70
2021/12/25 07:27:15;;;;;;;2.25;1.40;;;;;;;;;;5131952;27;20062;-72
2021/12/25 07:29:42;;;;;;;2.17;1.33;;;;;;;;;;5129589;27;20190;-70
2021/12/25 07:32:08;;;;;;;4.22;1.20;;;;;;;;;;5127449;27;20048;-72
2021/12/25 07:34:35;;;;;;;2.13;1.40;;;;;;;;;;5130437;27;20048;-69
2021/12/25 07:37:03;;;;;;;2.85;1.77;;;;;;;;;;5126805;27;20048;-70
2021/12/25 07:39:29;;;;;;;3.88;1.52;;;;;;;;;;5132039;27;20521;-70
2021/12/25 07:41:56;;;;;;;2.63;1.63;;;;;;;;;;5129553;27;20098;-70
2021/12/25 07:44:22;;;;;;;2.58;1.40;;;;;;;;;;5119238;27;20058;-70
2021/12/25 07:46:48;;;;;;;1.80;1.27;;;;;;;;;;5125777;27;20055;-70
2021/12/25 07:49:18;;;;;;;2.35;1.33;;;;;;;;;;5133495;27;20469;-70
2021/12/25 07:51:45;;;;;;;4.63;1.88;;;;;;;;;;5136642;27;20058;-72
2021/12/25 07:54:12;;;;;;;1.98;1.40;;;;;;;;;;5126271;27;20048;-72
2021/12/25 07:56:39;;;;;;;2.40;1.48;;;;;;;;;;5130882;27;20251;-72
2021/12/25 07:59:06;;;;;;;1.50;1.40;;;;;;;;;;5130678;27;20051;-71
2021/12/25 08:01:34;;;;;;;3.05;1.80;;;;;;;;;;5136101;27;20075;-70
2021/12/25 08:04:02;;;;;;;1.52;1.17;;;;;;;;;;5131459;27;20063;-69
2021/12/25 08:06:28;;;;;;;3.40;1.58;;;;;;;;;;5133774;27;20056;-70
2021/12/25 08:08:56;;;;;;;3.05;1.75;;;;;;;;;;5135593;27;20431;-70
2021/12/25 08:11:22;;;;;;;2.58;1.77;;;;;;;;;;5136733;27;20058;-70
2021/12/25 08:13:49;;;;;;;1.55;1.42;;;;;;;;;;5135658;27;20050;-70
2021/12/25 08:16:15;;;;;;;3.42;1.70;;;;;;;;;;5136005;27;20056;-70
2021/12/25 08:18:44;;;;;;;3.28;1.70;;;;;;;;;;5135079;27;20052;-70
2021/12/25 08:21:11;;;;;;;5.07;2.58;;;;;;;;;;5134205;27;20058;-70
2021/12/25 08:23:37;;;;;;;5.32;1.98;;;;;;;;;;5127036;27;20060;-70
2021/12/25 08:26:04;;;;;;;3.42;1.60;;;;;;;;;;5120260;27;20047;-70
2021/12/25 08:28:30;;;;;;;3.05;1.65;;;;;;;;;;5121772;27;20054;-72
2021/12/25 08:30:56;;;;;;;2.40;1.70;;;;;;;;;;5128517;27;20052;-71
2021/12/25 08:33:23;;;;;;;2.13;1.40;;;;;;;;;;5115264;27;20463;-70
2021/12/25 08:35:49;;;;;;;6.55;1.80;;;;;;;;;;5128978;27;20553;-70
2021/12/25 08:38:15;;;;;;;2.60;1.42;;;;;;;;;;5133291;27;20047;-73
2021/12/25 08:40:43;;;;;;;1.63;1.20;;;;;;;;;;5124220;27;20048;-72
2021/12/25 08:43:10;;;;;;;6.80;1.50;;;;;;;;;;5135403;27;20051;-72
2021/12/25 08:45:45;;;;;;;1.88;1.48;;;;;;;;;;5124383;27;20052;-72
2021/12/25 08:48:11;;;;;;;4.33;1.57;;;;;;;;;;5114851;28;20048;-71
2021/12/25 08:50:38;;;;;;;1.88;1.50;;;;;;;;;;5113077;27;20263;-71
2021/12/25 08:53:05;;;;;;;1.67;1.50;;;;;;;;;;5123112;27;20052;-73
2021/12/25 08:55:31;;;;;;;2.03;1.30;;;;;;;;;;5126910;27;20054;-73
2021/12/25 08:57:57;;;;;;;2.50;1.13;;;;;;;;;;5134928;27;20048;-73
2021/12/25 09:00:24;;;;;;;1.75;1.25;;;;;;;;;;5135320;27;20052;-74
2021/12/25 09:02:52;;;;;;;4.97;1.42;;;;;;;;;;5131313;27;20052;-71
2021/12/25 09:05:18;;;;;;;1.10;0.98;;;;;;;;;;5129899;27;20058;-72
2021/12/25 09:07:44;;;;;;;4.13;1.23;;;;;;;;;;5121193;27;20051;-71
2021/12/25 09:10:11;;;;;;;2.13;1.17;;;;;;;;;;5115923;27;20059;-73
2021/12/25 09:12:41;;;;;;;0.98;0.98;;;;;;;;;;5133275;27;20056;-71
2021/12/25 09:15:08;;;;;;;1.83;1.20;;;;;;;;;;5120610;27;20044;-73
2021/12/25 09:17:34;;;;;;;2.72;1.08;;;;;;;;;;5133414;27;20851;-73
2021/12/25 09:20:00;;;;;;;1.08;0.80;;;;;;;;;;5131896;27;20075;-72
2021/12/25 09:22:27;;;;;;;2.63;0.90;;;;;;;;;;5133267;27;20052;-74
2021/12/25 09:24:53;;;;;;;3.80;1.15;;;;;;;;;;5132641;27;20061;-73
2021/12/25 09:27:20;;;;;;;3.53;1.00;;;;;;;;;;5132300;27;20368;-73
2021/12/25 09:29:47;;;;;;;1.80;0.90;;;;;;;;;;5126089;27;20058;-72
2021/12/25 09:32:14;;;;;;;2.47;0.60;;;;;;;;;;5134268;27;20054;-72
2021/12/25 09:34:40;;;;;;;1.00;0.80;;;;;;;;;;5125000;27;20109;-71
2021/12/25 09:37:07;;;;;;;2.00;0.60;;;;;;;;;;5133192;27;20385;-71
2021/12/25 09:39:33;;;;;;;0.70;0.70;;;;;;;;;;5132830;27;20050;-71
2021/12/25 09:42:00;;;;;;;0.80;0.80;;;;;;;;;;5133093;27;20135;-72
2021/12/25 09:44:26;;;;;;;0.75;0.52;;;;;;;;;;5145962;27;20521;-73
2021/12/25 09:46:52;;;;;;;3.55;0.90;;;;;;;;;;5141796;27;20051;-70
2021/12/25 09:49:19;;;;;;;0.70;0.63;;;;;;;;;;5136367;27;20521;-73
2021/12/25 09:51:45;;;;;;;1.30;0.65;;;;;;;;;;5136553;27;20062;-72
2021/12/25 09:54:14;;;;;;;0.98;0.70;;;;;;;;;;5132238;27;20051;-71
2021/12/25 09:56:43;;;;;;;1.23;0.70;;;;;;;;;;5137363;27;20058;-72
2021/12/25 09:59:11;;;;;;;2.03;0.98;;;;;;;;;;5115428;27;20518;-73
2021/12/25 10:01:43;;;;;;;0.55;0.55;;;;;;;;;;5133841;27;20502;-73
2021/12/25 10:04:11;;;;;;;0.90;0.50;;;;;;;;;;5129464;27;20052;-73
2021/12/25 10:06:40;;;;;;;0.90;0.70;;;;;;;;;;5132666;27;20531;-72
2021/12/25 10:09:20;;;;;;;2.53;1.02;;;;;;;;;;5127477;27;20062;-73
2021/12/25 10:11:56;;;;;;;0.52;0.52;;;;;;;;;;5134205;27;20051;-71
2021/12/25 10:14:25;;;;;;;1.60;0.70;;;;;;;;;;5133907;27;20131;-73
2021/12/25 10:16:51;;;;;;;0.70;0.60;;;;;;;;;;5113612;27;20056;-73
2021/12/25 10:19:20;;;;;;;1.48;0.70;;;;;;;;;;5127570;27;20054;-73
2021/12/25 10:21:47;;;;;;;1.88;1.00;;;;;;;;;;5132804;27;20051;-72
2021/12/25 10:24:18;;;;;;;2.45;0.77;;;;;;;;;;5143492;27;20055;-73
2021/12/25 10:26:46;;;;;;;1.10;0.70;;;;;;;;;;5154883;27;20130;-72
2021/12/25 10:29:18;;;;;;;4.93;0.40;;;;;;;;;;5137165;27;20146;-74
2021/12/25 10:31:44;;;;;;;1.23;0.65;;;;;;;;;;5133447;27;20047;-74
2021/12/25 10:34:17;;;;;;;4.35;0.70;;;;;;;;;;5134222;27;20060;-73
2021/12/25 10:36:44;;;;;;;2.25;0.85;;;;;;;;;;5130540;27;20052;-73
2021/12/25 10:39:12;;;;;;;0.75;0.60;;;;;;;;;;5143214;27;20058;-72
2021/12/25 10:41:59;;;;;;;0.57;0.50;;;;;;;;;;5136949;27;20047;-72
2021/12/25 10:44:27;;;;;;;1.02;0.47;;;;;;;;;;5141965;27;20502;-72
2021/12/25 10:46:59;;;;;;;1.50;0.70;;;;;;;;;;5131948;27;20054;-73
2021/12/25 10:49:27;;;;;;;1.55;1.08;;;;;;;;;;5133850;27;20048;-75
2021/12/25 10:51:53;;;;;;;2.58;0.65;;;;;;;;;;5139475;27;20055;-74
2021/12/25 10:54:33;;;;;;;1.50;0.73;;;;;;;;;;5121495;27;20047;-71
2021/12/25 10:56:59;;;;;;;0.40;0.32;;;;;;;;;;5136067;27;20085;-75
2021/12/25 10:59:40;;;;;;;2.30;0.60;;;;;;;;;;5136978;27;20052;-74
2021/12/25 11:02:06;;;;;;;0.68;0.43;;;;;;;;;;5134996;27;20044;-73
2021/12/25 11:04:36;;;;;;;1.23;0.60;;;;;;;;;;5133595;27;20054;-73
2021/12/25 11:07:11;;;;;;;8.68;0.57;;;;;;;;;;5132905;27;20043;-72
2021/12/25 11:09:37;;;;;;;1.02;0.50;;;;;;;;;;5132167;27;20051;-74
2021/12/25 11:12:18;;;;;;;4.88;0.70;;;;;;;;;;5130784;27;20052;-73
2021/12/25 11:14:49;;;;;;;3.40;0.50;;;;;;;;;;5140800;27;20459;-73
2021/12/25 11:17:23;;;;;;;0.80;0.60;;;;;;;;;;5131694;27;20052;-71
2021/12/25 11:19:58;;;;;;;1.88;0.52;;;;;;;;;;5135013;27;20051;-73
2021/12/25 11:22:25;;;;;;;0.90;0.60;;;;;;;;;;5133640;27;20054;-73
2021/12/25 11:24:54;;;;;;;1.95;0.80;;;;;;;;;;5137069;27;20150;-73
2021/12/25 11:27:22;;;;;;;1.52;0.50;;;;;;;;;;5141817;27;20157;-72
2021/12/25 11:29:49;;;;;;;0.98;0.50;;;;;;;;;;5142947;27;20482;-72
2021/12/25 11:32:18;;;;;;;1.02;0.65;;;;;;;;;;5147885;27;20422;-72
2021/12/25 11:34:45;;;;;;;0.65;0.60;;;;;;;;;;5136582;27;20054;-72
2021/12/25 11:37:13;;;;;;;3.28;0.95;;;;;;;;;;5135955;27;20553;-71
2021/12/25 11:39:41;;;;;;;1.10;0.65;;;;;;;;;;5135744;27;20083;-72
2021/12/25 11:42:08;;;;;;;0.75;0.60;;;;;;;;;;5135237;27;20561;-71
2021/12/25 11:44:44;;;;;;;0.90;0.57;;;;;;;;;;5135594;27;20506;-69
2021/12/25 11:47:31;;;;;;;1.10;0.73;;;;;;;;;;5126745;27;20098;-73
2021/12/25 11:49:59;;;;;;;2.38;0.60;;;;;;;;;;5125676;27;20050;-73
2021/12/25 11:52:30;;;;;;;1.45;0.60;;;;;;;;;;5136277;27;20093;-74
2021/12/25 11:55:23;;;;;;;3.50;0.93;;;;;;;;;;5135979;27;20534;-75
2021/12/25 11:57:59;;;;;;;1.02;0.60;;;;;;;;;;5136274;27;20058;-72
2021/12/25 12:00:42;;;;;;;1.38;0.65;;;;;;;;;;5136632;27;20522;-73
2021/12/25 12:03:08;;;;;;;0.70;0.70;;;;;;;;;;5134034;27;20048;-74
2021/12/25 12:05:36;;;;;;;1.42;0.55;;;;;;;;;;5118765;27;20086;-73
2021/12/25 12:08:05;;;;;;;0.70;0.70;;;;;;;;;;5115162;28;20048;-73
2021/12/25 12:10:44;;;;;;;7.72;0.82;;;;;;;;;;5113411;27;20071;-72
2021/12/25 12:13:16;;;;;;;4.80;0.80;;;;;;;;;;5116286;27;20496;-72
2021/12/25 12:15:47;;;;;;;1.13;0.68;;;;;;;;;;5115922;27;20048;-72
2021/12/25 12:18:26;;;;;;;1.48;1.02;;;;;;;;;;5116800;27;20449;-72
2021/12/25 12:21:06;;;;;;;1.05;0.65;;;;;;;;;;5119202;27;20055;-74
2021/12/25 12:23:53;;;;;;;0.60;0.60;;;;;;;;;;5132880;27;20044;-74
2021/12/25 12:26:19;;;;;;;;;;;;;;;;;;5133404;27;20533;-69
2021/12/25 12:28:45;;;;;;;;;;;;;;;;;;5127377;27;45298;-71
2021/12/25 12:31:30;;;;;;;1.20;0.68;;;;;;;;;;5120785;27;46850;-73
2021/12/25 12:33:56;;;;;;;2.13;0.63;;;;;;;;;;5156842;27;20058;-74
2021/12/25 12:36:24;;;;;;;2.20;1.02;;;;;;;;;;5138444;27;20380;-72
2021/12/25 12:38:54;;;;;;;1.90;0.82;;;;;;;;;;5144583;27;20058;-71
2021/12/25 12:41:39;;;;;;;1.05;0.82;;;;;;;;;;5117630;27;20051;-72
2021/12/25 12:44:12;;;;;;;1.52;0.90;;;;;;;;;;5135656;27;20052;-72
2021/12/25 12:46:52;;;;;;;1.63;0.70;;;;;;;;;;5135824;27;20056;-73
2021/12/25 12:49:19;;;;;;;2.30;0.80;;;;;;;;;;5135172;27;20054;-73
2021/12/25 12:52:08;;;;;;;1.20;0.70;;;;;;;;;;5144327;27;20529;-76
2021/12/25 12:54:38;;;;;;;10.15;0.85;;;;;;;;;;5134844;27;20050;-74
2021/12/25 12:57:05;;;;;;;0.82;0.50;;;;;;;;;;5139704;27;20589;-75
2021/12/25 12:59:42;;;;;;;3.55;0.68;;;;;;;;;;5136928;27;20047;-74
2021/12/25 13:02:08;;;;;;;2.03;0.90;;;;;;;;;;5143202;27;20059;-74
2021/12/25 13:04:42;;;;;;;0.95;0.88;;;;;;;;;;5136258;27;20174;-73
2021/12/25 13:07:09;;;;;;;1.27;0.73;;;;;;;;;;5134009;27;20058;-72
2021/12/25 13:09:41;;;;;;;1.65;0.63;;;;;;;;;;5144563;27;20062;-73
2021/12/25 13:12:19;;;;;;;0.60;0.60;;;;;;;;;;5104043;27;20055;-72
2021/12/25 13:14:55;;;;;;;2.22;0.63;;;;;;;;;;5111348;27;20051;-72
2021/12/25 13:17:21;;;;;;;1.00;0.80;;;;;;;;;;5120934;27;20050;-72
2021/12/25 13:19:48;;;;;;;2.40;0.80;;;;;;;;;;5117270;27;20047;-73
2021/12/25 13:22:19;;;;;;;0.75;0.70;;;;;;;;;;5131271;27;20148;-72
2021/12/25 13:24:45;;;;;;;0.90;0.70;;;;;;;;;;5129701;27;20515;-72
2021/12/25 13:27:18;;;;;;;1.23;1.00;;;;;;;;;;5133948;27;20055;-73
2021/12/25 13:29:44;;;;;;;1.35;0.73;;;;;;;;;;5135560;27;20051;-72
2021/12/25 13:32:10;;;;;;;1.50;0.85;;;;;;;;;;5126492;27;20055;-73
2021/12/25 13:34:38;;;;;;;1.80;0.93;;;;;;;;;;5131386;27;20061;-72
2021/12/25 13:37:09;;;;;;;1.33;0.80;;;;;;;;;;5133185;27;20052;-71
2021/12/25 13:39:39;;;;;;;0.65;0.63;;;;;;;;;;5151419;27;20047;-73
2021/12/25 13:42:10;;;;;;;3.63;0.90;;;;;;;;;;5132608;27;20419;-72
2021/12/25 13:44:41;;;;;;;2.85;0.80;;;;;;;;;;5125886;27;20044;-73
2021/12/25 13:47:10;;;;;;;0.68;0.65;;;;;;;;;;5130980;27;20051;-75
2021/12/25 13:49:36;;;;;;;0.60;0.60;;;;;;;;;;5130004;27;20055;-73
2021/12/25 13:52:05;;;;;;;0.75;0.63;;;;;;;;;;5130636;27;20048;-74
2021/12/25 13:54:32;;;;;;;5.22;0.90;;;;;;;;;;5132433;27;20052;-74
2021/12/25 13:56:58;;;;;;;4.78;0.52;;;;;;;;;;5105924;27;20056;-75
2021/12/25 13:59:25;;;;;;;1.42;0.65;;;;;;;;;;5129997;27;20499;-75
2021/12/25 14:01:59;;;;;;;0.90;0.75;;;;;;;;;;5127685;27;20137;-76
2021/12/25 14:04:25;;;;;;;1.60;0.77;;;;;;;;;;5116700;27;20063;-77
2021/12/25 14:06:52;;;;;;;1.52;0.60;;;;;;;;;;5132275;27;20051;-75
2021/12/25 14:09:18;;;;;;;0.98;0.82;;;;;;;;;;5128882;27;20061;-74
2021/12/25 14:11:51;;;;;;;1.90;1.00;;;;;;;;;;5122996;27;20498;-73
2021/12/25 14:14:19;;;;;;;1.90;1.00;;;;;;;;;;5132399;27;20270;-75
2021/12/25 14:16:46;;;;;;;1.65;0.90;;;;;;;;;;5137253;27;20492;-75
2021/12/25 14:19:13;;;;;;;1.27;0.80;;;;;;;;;;5136799;27;20054;-70
2021/12/25 14:21:51;;;;;;;2.25;1.10;;;;;;;;;;5143034;27;20051;-73
2021/12/25 14:24:18;;;;;;;1.58;0.80;;;;;;;;;;5122286;27;20073;-77
2021/12/25 14:26:44;;;;;;;1.58;1.00;;;;;;;;;;5143338;27;20074;-73
2021/12/25 14:29:21;;;;;;;1.95;1.00;;;;;;;;;;5119889;27;20052;-74
2021/12/25 14:31:47;;;;;;;1.75;0.73;;;;;;;;;;5129812;27;20051;-75
2021/12/25 14:34:13;;;;;;;1.92;0.93;;;;;;;;;;5145126;27;20054;-73
2021/12/25 14:36:41;;;;;;;1.13;0.70;;;;;;;;;;5128549;27;20058;-73
2021/12/25 14:39:08;;;;;;;5.15;1.73;;;;;;;;;;5124019;27;20075;-74
2021/12/25 14:41:37;;;;;;;2.03;0.88;;;;;;;;;;5123694;27;20062;-75
2021/12/25 14:44:14;;;;;;;1.40;0.88;;;;;;;;;;5132769;27;20056;-73
2021/12/25 14:46:40;;;;;;;0.82;0.82;;;;;;;;;;5128758;27;20143;-74
2021/12/25 14:49:06;;;;;;;2.17;1.10;;;;;;;;;;5114777;27;20048;-75
2021/12/25 14:51:34;;;;;;;1.15;0.95;;;;;;;;;;5117347;27;20071;-75
2021/12/25 14:54:01;;;;;;;1.45;0.80;;;;;;;;;;5132763;27;20054;-79
2021/12/25 14:56:28;;;;;;;1.58;1.08;;;;;;;;;;5140909;27;20553;-79
2021/12/25 14:58:59;;;;;;;3.35;1.30;;;;;;;;;;5141957;27;20048;-76
2021/12/25 15:01:30;;;;;;;1.00;0.68;;;;;;;;;;5135777;27;20513;-75
2021/12/25 15:04:02;;;;;;;1.38;0.90;;;;;;;;;;5132635;27;20074;-77
2021/12/25 15:06:29;;;;;;;2.72;1.00;;;;;;;;;;5129415;27;20058;-75
2021/12/25 15:09:06;;;;;;;3.60;0.82;;;;;;;;;;5135365;27;20082;-74
2021/12/25 15:11:35;;;;;;;7.25;1.10;;;;;;;;;;5134894;27;20048;-73
2021/12/25 15:14:04;;;;;;;2.55;0.90;;;;;;;;;;5126758;27;20051;-75
2021/12/25 15:16:37;;;;;;;1.40;0.70;;;;;;;;;;5134502;27;20050;-74
2021/12/25 15:19:03;;;;;;;1.17;0.70;;;;;;;;;;5123490;27;20051;-80
2021/12/25 15:21:30;;;;;;;2.60;1.05;;;;;;;;;;5133088;27;20380;-73
2021/12/25 15:24:11;;;;;;;1.45;0.90;;;;;;;;;;5128733;27;20052;-74
2021/12/25 15:26:39;;;;;;;2.05;0.85;;;;;;;;;;5135433;27;20047;-75
2021/12/25 15:29:06;;;;;;;1.92;1.15;;;;;;;;;;5123941;27;20054;-74
2021/12/25 15:31:33;;;;;;;1.08;0.98;;;;;;;;;;5127028;27;20052;-74
2021/12/25 15:34:01;;;;;;;3.88;1.67;;;;;;;;;;5119695;27;20058;-73
2021/12/25 15:36:28;;;;;;;1.70;1.05;;;;;;;;;;5115097;27;20048;-74
2021/12/25 15:38:55;;;;;;;1.23;0.90;;;;;;;;;;5120017;27;20532;-75
2021/12/25 15:41:23;;;;;;;4.70;1.05;;;;;;;;;;5119080;27;20063;-74
2021/12/25 15:43:50;;;;;;;1.35;1.02;;;;;;;;;;5123732;27;20077;-75
2021/12/25 15:46:16;;;;;;;6.25;1.55;;;;;;;;;;5122245;27;20125;-74
2021/12/25 15:48:43;;;;;;;3.40;0.98;;;;;;;;;;5133444;27;20047;-77
2021/12/25 15:51:10;;;;;;;1.77;1.00;;;;;;;;;;5128135;27;20055;-75
2021/12/25 15:53:36;;;;;;;2.05;1.20;;;;;;;;;;5133462;27;20040;-73
2021/12/25 15:56:03;;;;;;;1.55;1.20;;;;;;;;;;5103389;28;20063;-75
2021/12/25 15:58:29;;;;;;;3.38;1.10;;;;;;;;;;5114560;27;20044;-73
2021/12/25 16:00:56;;;;;;;2.17;1.17;;;;;;;;;;5126023;27;20558;-71